Time;durP1;ratioP1;P1;durP2;ratioP2;P2;SDS_P1;SDS_P2;PMS_P1;PMS_P2;Temp;Humidity;BMP_temperature;BMP_pressure;BME280_temperature;BME280_humidity;BME280_pressure;Samples;Min_cycle;Max_cycle;Signal;HPM_P1;HPM_P2
2023/12/20 00:00:40;;;;;;;1.50;1.40;;;;;;;14.06;54.02;97474.88;105642;1259;62092;-39
2023/12/20 00:03:07;;;;;;;2.20;1.70;;;;;;;14.06;54.00;97477.42;105251;1264;62096;-39
2023/12/20 00:05:36;;;;;;;2.30;1.90;;;;;;;14.07;54.03;97476.84;105895;1260;75545;-38
2023/12/20 00:08:05;;;;;;;1.90;1.70;;;;;;;14.07;53.96;97472.23;105124;1261;64081;-40
2023/12/20 00:10:32;;;;;;;1.60;1.50;;;;;;;14.07;53.93;97466.25;105781;1261;71307;-40
2023/12/20 00:13:00;;;;;;;2.00;1.60;;;;;;;14.08;53.99;97462.20;105450;1261;62047;-39
2023/12/20 00:15:27;;;;;;;2.60;1.60;;;;;;;14.08;54.03;97458.75;105188;1262;62059;-40
2023/12/20 00:17:54;;;;;;;1.50;1.40;;;;;;;14.09;53.89;97456.60;105202;1260;75969;-40
2023/12/20 00:20:22;;;;;;;2.00;1.70;;;;;;;14.08;53.88;97456.52;105332;1259;66348;-40
2023/12/20 00:22:49;;;;;;;1.60;1.50;;;;;;;14.09;53.84;97451.38;105607;1259;71512;-40
2023/12/20 00:25:17;;;;;;;2.20;1.90;;;;;;;14.09;53.91;97449.70;105288;1261;62057;-40
2023/12/20 00:27:45;;;;;;;2.10;1.90;;;;;;;14.09;53.98;97445.77;105257;1258;62104;-38
2023/12/20 00:30:13;;;;;;;1.70;1.60;;;;;;;14.09;53.95;97442.70;105506;1259;75385;-40
2023/12/20 00:32:46;;;;;;;2.10;1.80;;;;;;;14.09;54.00;97438.54;105480;1259;66289;-39
2023/12/20 00:35:14;;;;;;;1.80;1.70;;;;;;;14.10;53.88;97441.50;105183;1261;71690;-38
2023/12/20 00:37:42;;;;;;;1.90;1.70;;;;;;;14.10;54.00;97441.65;105301;1261;62060;-39
2023/12/20 00:40:11;;;;;;;2.60;1.70;;;;;;;14.10;53.80;97440.29;105238;1261;61936;-39
2023/12/20 00:42:38;;;;;;;2.00;1.70;;;;;;;14.10;53.86;97441.59;105252;1260;73927;-39
2023/12/20 00:45:06;;;;;;;3.50;1.70;;;;;;;14.11;53.81;97449.21;105206;1261;65455;-41
2023/12/20 00:47:34;;;;;;;2.00;1.60;;;;;;;14.10;53.89;97447.45;105375;1260;72304;-39
2023/12/20 00:50:01;;;;;;;1.90;1.70;;;;;;;14.11;53.88;97439.07;105313;1262;61994;-38
2023/12/20 00:52:29;;;;;;;1.70;1.60;;;;;;;14.11;54.01;97434.76;105478;1261;62130;-41
2023/12/20 00:54:56;;;;;;;2.20;1.70;;;;;;;14.11;53.93;97430.45;105489;1262;74452;-38
2023/12/20 00:57:25;;;;;;;2.20;1.90;;;;;;;14.11;53.85;97429.75;105354;1262;66282;-39
2023/12/20 00:59:52;;;;;;;1.90;1.70;;;;;;;14.12;53.81;97428.02;105556;1261;71858;-40
2023/12/20 01:02:19;;;;;;;1.90;1.70;;;;;;;14.11;53.87;97422.73;105520;1262;62076;-38
2023/12/20 01:04:47;;;;;;;2.10;1.90;;;;;;;14.11;53.90;97416.30;105339;1257;62155;-40
2023/12/20 01:07:14;;;;;;;2.00;1.80;;;;;;;14.11;53.94;97407.83;105446;1262;75269;-40
2023/12/20 01:09:41;;;;;;;1.80;1.50;;;;;;;14.11;53.76;97410.23;105215;1261;65058;-38
2023/12/20 01:12:09;;;;;;;2.00;1.70;;;;;;;14.11;53.82;97402.44;105426;1259;72665;-40
2023/12/20 01:14:36;;;;;;;1.90;1.80;;;;;;;14.11;53.82;97403.84;105383;1262;62140;-39
2023/12/20 01:17:04;;;;;;;2.10;1.90;;;;;;;14.11;53.78;97403.37;105352;1260;62144;-40
2023/12/20 01:19:31;;;;;;;2.00;1.80;;;;;;;14.11;53.81;97403.98;105376;1259;75438;-40
2023/12/20 01:21:59;;;;;;;2.30;1.80;;;;;;;14.11;53.76;97400.89;105519;1262;65018;-40
2023/12/20 01:24:26;;;;;;;1.60;1.50;;;;;;;14.11;53.80;97398.91;105154;1262;72429;-40
2023/12/20 01:26:54;;;;;;;1.70;1.60;;;;;;;14.10;53.73;97396.98;105617;1261;62068;-40
2023/12/20 01:29:21;;;;;;;1.90;1.80;;;;;;;14.10;53.82;97391.17;105533;1262;62080;-39
2023/12/20 01:31:48;;;;;;;1.90;1.60;;;;;;;14.10;53.88;97391.27;105491;1257;75464;-39
2023/12/20 01:34:16;;;;;;;1.90;1.80;;;;;;;14.10;53.83;97389.58;105292;1261;65833;-39
2023/12/20 01:36:43;;;;;;;1.90;1.60;;;;;;;14.10;53.81;97385.09;105542;1259;72385;-38
2023/12/20 01:39:10;;;;;;;2.00;1.80;;;;;;;14.10;53.86;97381.33;105448;1262;62071;-38
2023/12/20 01:41:51;;;;;;;2.60;1.60;;;;;;;14.10;53.78;97376.17;105242;1257;62113;-39
2023/12/20 01:44:18;;;;;;;1.70;1.50;;;;;;;14.10;53.84;97370.95;105354;1262;75409;-39
2023/12/20 01:46:46;;;;;;;2.40;1.50;;;;;;;14.10;53.75;97369.80;105368;1262;66230;-39
2023/12/20 01:49:13;;;;;;;1.90;1.60;;;;;;;14.10;53.85;97372.11;105392;1261;72367;-40
2023/12/20 01:51:41;;;;;;;1.80;1.70;;;;;;;14.10;53.90;97367.80;105360;1262;62052;-40
2023/12/20 01:54:08;;;;;;;2.00;1.50;;;;;;;14.10;53.78;97363.11;105056;1262;62071;-39
2023/12/20 01:56:36;;;;;;;2.00;1.60;;;;;;;14.10;53.77;97355.58;105147;1264;75283;-38
2023/12/20 01:59:04;;;;;;;1.50;1.40;;;;;;;14.11;53.75;97352.05;105361;1261;66078;-41
2023/12/20 02:01:31;;;;;;;1.80;1.70;;;;;;;14.11;53.68;97348.97;105414;1260;72387;-39
2023/12/20 02:03:59;;;;;;;1.60;1.50;;;;;;;14.11;53.73;97347.52;105228;1261;62075;-39
2023/12/20 02:06:29;;;;;;;1.80;1.60;;;;;;;14.11;53.76;97339.75;105149;1260;62215;-38
2023/12/20 02:08:57;;;;;;;1.90;1.70;;;;;;;14.11;53.67;97334.80;105169;1261;74446;-41
2023/12/20 02:11:25;;;;;;;2.00;1.70;;;;;;;14.11;53.65;97333.98;105318;1262;66106;-40
2023/12/20 02:13:53;;;;;;;2.00;1.80;;;;;;;14.12;53.76;97328.38;105204;1258;71594;-39
2023/12/20 02:16:21;;;;;;;2.10;1.70;;;;;;;14.11;53.71;97326.83;105502;1261;62053;-39
2023/12/20 02:18:49;;;;;;;1.70;1.60;;;;;;;14.11;53.78;97324.13;105292;1258;62155;-39
2023/12/20 02:21:16;;;;;;;2.50;1.60;;;;;;;14.11;53.70;97317.84;105138;1258;75382;-39
2023/12/20 02:23:44;;;;;;;2.10;1.60;;;;;;;14.11;53.66;97315.04;105189;1262;65916;-40
2023/12/20 02:26:13;;;;;;;1.70;1.60;;;;;;;14.12;53.66;97313.45;105254;1262;73707;-39
2023/12/20 02:28:41;;;;;;;1.70;1.60;;;;;;;14.11;53.81;97306.83;105042;1263;62366;-40
2023/12/20 02:31:08;;;;;;;1.50;1.40;;;;;;;14.12;53.67;97308.77;105254;1262;62141;-39
2023/12/20 02:33:36;;;;;;;1.80;1.60;;;;;;;14.12;53.74;97304.30;105131;1263;75392;-39
2023/12/20 02:36:04;;;;;;;1.90;1.70;;;;;;;14.12;53.60;97300.31;105262;1262;65672;-40
2023/12/20 02:38:31;;;;;;;1.60;1.50;;;;;;;14.12;53.52;97295.52;105227;1262;71367;-39
2023/12/20 02:40:58;;;;;;;2.30;1.90;;;;;;;14.11;53.64;97299.29;105241;1263;61998;-40
2023/12/20 02:43:26;;;;;;;2.30;1.70;;;;;;;14.11;53.63;97289.98;105178;1262;62137;-40
2023/12/20 02:45:53;;;;;;;2.10;1.90;;;;;;;14.12;53.64;97282.75;105142;1262;75345;-40
2023/12/20 02:48:21;;;;;;;1.60;1.40;;;;;;;14.12;53.64;97276.98;105528;1261;64145;-38
2023/12/20 02:50:49;;;;;;;2.50;1.70;;;;;;;14.12;53.58;97271.06;105413;1259;72677;-40
2023/12/20 02:53:16;;;;;;;3.00;1.60;;;;;;;14.12;53.54;97273.70;105302;1262;62077;-39
2023/12/20 02:55:43;;;;;;;1.80;1.60;;;;;;;14.12;53.60;97269.98;105512;1260;62187;-38
2023/12/20 02:58:11;;;;;;;2.40;1.60;;;;;;;14.12;53.63;97272.69;105255;1261;75192;-40
2023/12/20 03:00:38;;;;;;;2.20;1.50;;;;;;;14.12;53.62;97273.85;105143;1265;66452;-38
2023/12/20 03:03:06;;;;;;;1.70;1.60;;;;;;;14.12;53.57;97275.15;105284;1261;72370;-41
2023/12/20 03:05:33;;;;;;;1.80;1.70;;;;;;;14.12;53.64;97268.85;105386;1261;62038;-39
2023/12/20 03:08:00;;;;;;;1.60;1.50;;;;;;;14.12;53.70;97262.55;105263;1257;62077;-38
2023/12/20 03:10:28;;;;;;;2.10;1.60;;;;;;;14.12;53.68;97260.23;105173;1261;75352;-41
2023/12/20 03:12:55;;;;;;;1.70;1.60;;;;;;;14.12;53.63;97264.86;105162;1261;66039;-40
2023/12/20 03:15:22;;;;;;;1.40;1.30;;;;;;;14.12;53.58;97255.55;105132;1263;72612;-40
2023/12/20 03:17:50;;;;;;;1.70;1.60;;;;;;;14.12;53.60;97257.48;105169;1271;62035;-39
2023/12/20 03:20:17;;;;;;;2.00;1.70;;;;;;;14.12;53.56;97254.25;105187;1259;62168;-39
2023/12/20 03:22:46;;;;;;;1.80;1.60;;;;;;;14.12;53.61;97256.70;105250;1261;75541;-41
2023/12/20 03:25:13;;;;;;;1.80;1.60;;;;;;;14.12;53.59;97250.63;105452;1262;66404;-40
2023/12/20 03:27:41;;;;;;;1.90;1.50;;;;;;;14.12;53.57;97252.63;105194;1258;72364;-39
2023/12/20 03:30:09;;;;;;;1.90;1.80;;;;;;;14.13;53.66;97253.95;105225;1263;61931;-38
2023/12/20 03:32:38;;;;;;;1.80;1.70;;;;;;;14.13;53.60;97251.80;105419;1262;62051;-41
2023/12/20 03:35:06;;;;;;;1.70;1.60;;;;;;;14.13;53.49;97250.88;105449;1258;75400;-38
2023/12/20 03:37:33;;;;;;;1.90;1.60;;;;;;;14.13;53.57;97252.88;105441;1263;66221;-39
2023/12/20 03:40:01;;;;;;;1.80;1.60;;;;;;;14.13;53.51;97252.51;105422;1262;72429;-38
2023/12/20 03:42:28;;;;;;;1.90;1.70;;;;;;;14.13;53.56;97255.73;105438;1260;62094;-39
2023/12/20 03:44:56;;;;;;;2.50;1.60;;;;;;;14.13;53.59;97257.80;105339;1257;62093;-40
2023/12/20 03:47:23;;;;;;;2.40;1.60;;;;;;;14.13;53.49;97259.59;105404;1269;75173;-39
2023/12/20 03:49:50;;;;;;;1.70;1.50;;;;;;;14.13;53.51;97260.13;105419;1262;66307;-38
2023/12/20 03:52:17;;;;;;;2.20;1.80;;;;;;;14.14;53.61;97260.21;105218;1261;73180;-38
2023/12/20 03:54:45;;;;;;;2.00;1.70;;;;;;;14.13;53.57;97260.83;105261;1262;62057;-39
2023/12/20 03:57:12;;;;;;;1.80;1.70;;;;;;;14.14;53.59;97263.82;105339;1260;62156;-39
2023/12/20 03:59:40;;;;;;;2.20;1.60;;;;;;;14.13;53.54;97262.73;105349;1261;75410;-40
2023/12/20 04:02:07;;;;;;;2.30;1.50;;;;;;;14.13;53.51;97257.50;105316;1272;66292;-40
2023/12/20 04:04:35;;;;;;;1.60;1.50;;;;;;;14.13;53.67;97256.20;105396;1263;73168;-38
2023/12/20 04:07:03;;;;;;;1.50;1.40;;;;;;;14.14;53.54;97254.44;105405;1261;62016;-40
2023/12/20 04:09:30;;;;;;;1.80;1.50;;;;;;;14.13;53.63;97257.21;105230;1258;62209;-39
2023/12/20 04:11:58;;;;;;;1.70;1.60;;;;;;;14.13;53.46;97255.66;105169;1262;75910;-40
2023/12/20 04:14:25;;;;;;;1.60;1.50;;;;;;;14.13;53.56;97257.96;105242;1257;65814;-39
2023/12/20 04:16:53;;;;;;;1.60;1.50;;;;;;;14.13;53.67;97258.66;105201;1261;72650;-40
2023/12/20 04:19:20;;;;;;;2.10;1.50;;;;;;;14.14;53.56;97253.91;105131;1257;62051;-38
2023/12/20 04:21:48;;;;;;;2.40;1.50;;;;;;;14.14;53.51;97253.46;105507;1257;62157;-38
2023/12/20 04:24:16;;;;;;;2.00;1.80;;;;;;;14.14;53.57;97257.61;105396;1261;75409;-39
2023/12/20 04:26:44;;;;;;;1.50;1.40;;;;;;;14.14;53.49;97260.08;105457;1262;65639;-40
2023/12/20 04:29:11;;;;;;;1.90;1.70;;;;;;;14.14;53.49;97261.32;105151;1260;72329;-40
2023/12/20 04:31:38;;;;;;;2.20;1.70;;;;;;;14.14;53.49;97253.94;105468;1260;62063;-38
2023/12/20 04:34:06;;;;;;;1.90;1.70;;;;;;;14.14;53.61;97258.69;105439;1260;62141;-39
2023/12/20 04:36:33;;;;;;;2.00;1.60;;;;;;;14.15;53.62;97260.56;105407;1261;75134;-40
2023/12/20 04:39:01;;;;;;;1.90;1.60;;;;;;;14.14;53.47;97264.23;105223;1261;65532;-39
2023/12/20 04:41:28;;;;;;;2.80;1.70;;;;;;;14.15;53.51;97264.48;105229;1258;72687;-38
2023/12/20 04:43:56;;;;;;;1.70;1.60;;;;;;;14.14;53.50;97261.00;105244;1271;62052;-39
2023/12/20 04:46:23;;;;;;;2.00;1.60;;;;;;;14.14;53.44;97256.31;105244;1261;62175;-40
2023/12/20 04:48:51;;;;;;;1.50;1.40;;;;;;;14.14;53.44;97255.94;105123;1269;75404;-40
2023/12/20 04:51:18;;;;;;;1.60;1.50;;;;;;;14.14;53.48;97255.99;105224;1261;66443;-40
2023/12/20 04:53:46;;;;;;;1.50;1.40;;;;;;;14.14;53.57;97256.16;105182;1260;72620;-39
2023/12/20 04:56:13;;;;;;;1.80;1.50;;;;;;;14.15;53.50;97252.86;105501;1263;62073;-39
2023/12/20 04:58:41;;;;;;;2.00;1.80;;;;;;;14.15;53.53;97255.88;105340;1261;62179;-40
2023/12/20 05:01:09;;;;;;;1.60;1.50;;;;;;;14.15;53.46;97253.34;105524;1258;75190;-39
2023/12/20 05:03:36;;;;;;;1.90;1.70;;;;;;;14.15;53.47;97250.58;105227;1262;66186;-38
2023/12/20 05:06:04;;;;;;;1.40;1.30;;;;;;;14.15;53.46;97243.64;105517;1260;72414;-37
2023/12/20 05:08:31;;;;;;;1.60;1.50;;;;;;;14.15;53.47;97237.02;105402;1271;62055;-40
2023/12/20 05:10:59;;;;;;;1.40;1.30;;;;;;;14.15;53.50;97238.56;105274;1257;62173;-39
2023/12/20 05:13:26;;;;;;;2.30;1.70;;;;;;;14.14;53.43;97237.39;105399;1261;74441;-39
2023/12/20 05:16:08;;;;;;;1.70;1.60;;;;;;;14.14;53.41;97234.23;105247;1260;66237;-40
2023/12/20 05:18:36;;;;;;;1.50;1.40;;;;;;;14.14;53.47;97232.08;105217;1257;72726;-39
2023/12/20 05:21:04;;;;;;;2.00;1.60;;;;;;;14.14;53.40;97231.69;105492;1261;62056;-39
2023/12/20 05:23:32;;;;;;;3.10;1.80;;;;;;;14.14;53.31;97229.38;105441;1261;62072;-39
2023/12/20 05:26:00;;;;;;;2.30;1.60;;;;;;;14.14;53.38;97230.61;105513;1258;75377;-40
2023/12/20 05:28:27;;;;;;;2.40;1.90;;;;;;;14.14;53.28;97227.77;105291;1261;64792;-40
2023/12/20 05:30:55;;;;;;;1.60;1.50;;;;;;;14.14;53.40;97226.38;105453;1262;72650;-40
2023/12/20 05:33:22;;;;;;;1.50;1.40;;;;;;;14.14;53.38;97225.02;105360;1260;62160;-39
2023/12/20 05:35:50;;;;;;;2.60;1.70;;;;;;;14.15;53.45;97227.41;105318;1261;62095;-38
2023/12/20 05:38:17;;;;;;;1.50;1.40;;;;;;;14.15;53.43;97223.23;105459;1258;75236;-39
2023/12/20 05:40:45;;;;;;;1.60;1.50;;;;;;;14.14;53.38;97223.08;105446;1257;65927;-39
2023/12/20 05:43:12;;;;;;;1.70;1.60;;;;;;;14.15;53.39;97221.55;105267;1258;72501;-39
2023/12/20 05:45:40;;;;;;;1.70;1.60;;;;;;;14.15;53.33;97223.96;105435;1261;62724;-40
2023/12/20 05:48:07;;;;;;;2.40;2.20;;;;;;;14.15;53.42;97221.27;105433;1260;62138;-40
2023/12/20 05:50:35;;;;;;;2.70;2.50;;;;;;;14.16;53.37;97219.55;105308;1261;75444;-39
2023/12/20 05:53:02;;;;;;;3.20;2.40;;;;;;;14.19;53.48;97221.92;105223;1257;66359;-39
2023/12/20 05:55:30;;;;;;;3.10;2.70;;;;;;;14.22;53.64;97214.83;105773;1258;72717;-41
2023/12/20 05:57:57;;;;;;;3.30;2.60;;;;;;;14.27;53.80;97210.59;105025;1261;62156;-40
2023/12/20 06:00:25;;;;;;;2.70;2.20;;;;;;;14.31;53.57;97204.77;105315;1257;62065;-41
2023/12/20 06:02:52;;;;;;;2.80;2.50;;;;;;;14.34;53.51;97207.33;105292;1261;75387;-39
2023/12/20 06:05:20;;;;;;;3.30;2.60;;;;;;;14.37;53.52;97205.13;105351;1257;66301;-39
2023/12/20 06:07:49;;;;;;;2.90;2.60;;;;;;;14.39;53.56;97205.76;105220;1258;72733;-40
2023/12/20 06:10:17;;;;;;;2.70;2.40;;;;;;;14.42;53.33;97203.59;105218;1271;62038;-40
2023/12/20 06:12:47;;;;;;;3.70;2.70;;;;;;;14.43;53.23;97208.03;105204;1260;62068;-39
2023/12/20 06:15:14;;;;;;;3.20;2.70;;;;;;;14.44;53.21;97210.60;105511;1258;76481;-40
2023/12/20 06:17:42;;;;;;;3.00;2.60;;;;;;;14.46;53.09;97210.88;105420;1260;67157;-39
2023/12/20 06:20:10;;;;;;;3.70;2.90;;;;;;;14.46;52.96;97206.95;105284;1257;72635;-41
2023/12/20 06:22:38;;;;;;;2.90;2.60;;;;;;;14.46;52.96;97205.29;105275;1260;62056;-39
2023/12/20 06:25:06;;;;;;;2.90;2.60;;;;;;;14.47;53.01;97199.23;105435;1258;62141;-41
2023/12/20 06:27:34;;;;;;;2.90;2.50;;;;;;;14.48;52.70;97195.55;105411;1260;75165;-41
2023/12/20 06:30:01;;;;;;;3.10;2.80;;;;;;;14.48;52.81;97191.48;105264;1258;65099;-39
2023/12/20 06:32:29;;;;;;;3.20;2.70;;;;;;;14.48;52.77;97193.10;105096;1257;73163;-40
2023/12/20 06:34:56;;;;;;;3.10;2.60;;;;;;;14.48;52.66;97193.70;105210;1260;62032;-40
2023/12/20 06:37:23;;;;;;;3.40;2.60;;;;;;;14.48;52.69;97197.33;105408;1257;62040;-41
2023/12/20 06:39:51;;;;;;;3.10;2.80;;;;;;;14.47;52.65;97195.23;105102;1264;75406;-40
2023/12/20 06:42:19;;;;;;;3.30;2.60;;;;;;;14.48;52.77;97203.05;105147;1257;65037;-40
2023/12/20 06:44:46;;;;;;;3.30;2.60;;;;;;;14.49;52.79;97202.67;105182;1257;71888;-39
2023/12/20 06:47:14;;;;;;;4.00;2.70;;;;;;;14.49;53.14;97200.45;105280;1257;62187;-39
2023/12/20 06:49:41;;;;;;;3.60;2.70;;;;;;;14.50;53.27;97195.94;105525;1258;62158;-38
2023/12/20 06:52:09;;;;;;;5.20;2.60;;;;;;;14.51;53.46;97193.89;105468;1261;75459;-39
2023/12/20 06:54:36;;;;;;;4.10;2.50;;;;;;;14.52;53.63;97194.26;105383;1261;63955;-39
2023/12/20 06:57:04;;;;;;;3.80;3.10;;;;;;;14.54;53.74;97200.08;105302;1258;72462;-40
2023/12/20 06:59:31;;;;;;;3.00;2.30;;;;;;;14.55;53.87;97198.66;104947;1261;184620;-39
2023/12/20 07:01:59;;;;;;;5.10;3.00;;;;;;;14.57;53.96;97197.56;105299;1258;62085;-39
2023/12/20 07:04:27;;;;;;;3.90;2.70;;;;;;;14.58;54.00;97200.83;105175;1260;75899;-38
2023/12/20 07:06:57;;;;;;;4.60;3.00;;;;;;;14.58;54.06;97196.44;105183;1261;65392;-40
2023/12/20 07:09:25;;;;;;;3.20;2.50;;;;;;;14.59;54.11;97198.70;105376;1260;72308;-38
2023/12/20 07:11:53;;;;;;;4.90;2.70;;;;;;;14.61;54.15;97198.54;105215;1264;62164;-37
2023/12/20 07:14:20;;;;;;;5.40;2.50;;;;;;;14.62;54.06;97197.75;105143;1260;62135;-40
2023/12/20 07:16:47;;;;;;;5.40;2.50;;;;;;;14.65;54.02;97201.38;105103;1258;75542;-39
2023/12/20 07:19:15;;;;;;;5.10;2.70;;;;;;;14.67;54.02;97205.06;105107;1257;66236;-41
2023/12/20 07:21:43;;;;;;;4.00;2.70;;;;;;;14.68;54.08;97193.02;104930;1257;72790;-41
2023/12/20 07:24:10;;;;;;;4.30;2.50;;;;;;;14.70;53.97;97192.52;105233;1257;63283;-39
2023/12/20 07:26:39;;;;;;;5.40;2.90;;;;;;;14.71;54.05;97186.41;105417;1257;62038;-40
2023/12/20 07:29:06;;;;;;;4.30;3.00;;;;;;;14.72;53.83;97181.44;108287;1256;75506;-40
2023/12/20 07:31:34;;;;;;;3.70;2.50;;;;;;;14.72;53.81;97178.66;105178;1260;66185;-40
2023/12/20 07:34:02;;;;;;;4.40;2.70;;;;;;;14.72;53.67;97183.90;105208;1260;72528;-40
2023/12/20 07:36:29;;;;;;;6.10;2.90;;;;;;;14.72;53.70;97181.27;105137;1260;62106;-40
2023/12/20 07:38:57;;;;;;;3.70;2.80;;;;;;;14.72;53.65;97180.27;105441;1257;62072;-39
2023/12/20 07:41:24;;;;;;;6.00;2.60;;;;;;;14.72;53.50;97184.67;105323;1261;75420;-37
2023/12/20 07:43:52;;;;;;;3.90;2.40;;;;;;;14.72;53.61;97180.42;105534;1261;65919;-39
2023/12/20 07:46:22;;;;;;;3.90;2.70;;;;;;;14.71;53.60;97173.33;105257;1258;72691;-39
2023/12/20 07:48:50;;;;;;;5.80;2.80;;;;;;;14.71;53.50;97177.02;105046;1257;61992;-40
2023/12/20 07:51:18;;;;;;;4.10;2.40;;;;;;;14.70;53.48;97181.98;105037;1257;62153;-37
2023/12/20 07:53:45;;;;;;;3.10;2.30;;;;;;;14.70;53.45;97182.69;105259;1259;75722;-40
2023/12/20 07:56:16;;;;;;;4.40;2.60;;;;;;;14.72;53.52;97185.12;105226;1257;66167;-40
2023/12/20 07:58:44;;;;;;;4.40;2.50;;;;;;;14.73;53.74;97182.85;105293;1260;71432;-43
2023/12/20 08:01:19;;;;;;;5.90;2.90;;;;;;;14.74;53.75;97179.67;105060;1258;62069;-41
2023/12/20 08:03:48;;;;;;;4.30;2.20;;;;;;;14.75;53.82;97182.48;105094;1257;62195;-40
2023/12/20 08:06:17;;;;;;;4.10;2.60;;;;;;;14.77;53.98;97183.43;105052;1260;75355;-39
2023/12/20 08:08:45;;;;;;;3.60;2.50;;;;;;;14.78;54.05;97182.80;105334;1257;66293;-42
2023/12/20 08:11:21;;;;;;;2.80;2.20;;;;;;;14.80;53.86;97188.77;105062;1258;73445;-41
2023/12/20 08:13:48;;;;;;;3.10;2.50;;;;;;;14.81;53.56;97186.02;104913;1258;62238;-43
2023/12/20 08:16:17;;;;;;;4.90;2.40;;;;;;;14.81;53.65;97189.52;105097;1258;62159;-43
2023/12/20 08:18:45;;;;;;;4.80;2.50;;;;;;;14.82;53.36;97186.16;105063;1258;75393;-43
2023/12/20 08:21:13;;;;;;;5.30;2.50;;;;;;;14.83;53.32;97183.55;104944;1260;65221;-40
2023/12/20 08:23:41;;;;;;;3.60;2.60;;;;;;;14.83;53.31;97183.57;104757;1258;71375;-38
2023/12/20 08:26:08;;;;;;;4.40;2.90;;;;;;;14.84;53.20;97182.27;104903;1258;62119;-38
2023/12/20 08:28:36;;;;;;;5.50;2.80;;;;;;;14.84;53.16;97180.98;105051;1257;62049;-41
2023/12/20 08:31:04;;;;;;;5.40;3.00;;;;;;;14.86;53.18;97175.55;105319;1258;73253;-39
2023/12/20 08:33:31;;;;;;;5.80;3.30;;;;;;;14.85;53.11;97176.67;105387;1257;65984;-39
2023/12/20 08:35:59;;;;;;;6.50;3.30;;;;;;;14.83;53.31;97177.62;105012;1258;72618;-41
2023/12/20 08:38:26;;;;;;;3.90;2.70;;;;;;;14.81;53.20;97177.27;104993;1261;62032;-39
2023/12/20 08:40:53;;;;;;;4.50;2.50;;;;;;;14.79;53.23;97176.11;105098;1260;62067;-40
2023/12/20 08:43:22;;;;;;;3.60;2.40;;;;;;;14.77;53.25;97179.75;105112;1262;74834;-41
2023/12/20 08:45:49;;;;;;;7.40;2.80;;;;;;;14.76;53.19;97179.48;105051;1260;66926;-41
2023/12/20 08:48:16;;;;;;;4.40;2.90;;;;;;;14.74;53.19;97173.74;104996;1258;72467;-40
2023/12/20 08:50:44;;;;;;;3.40;2.50;;;;;;;14.73;53.20;97169.24;105110;1264;62060;-43
2023/12/20 08:53:12;;;;;;;4.10;2.60;;;;;;;14.74;53.27;97167.79;105198;1258;62140;-42
2023/12/20 08:55:39;;;;;;;5.70;2.50;;;;;;;14.75;53.34;97163.45;105529;1261;75808;-46
2023/12/20 08:58:08;;;;;;;3.30;2.50;;;;;;;14.79;53.49;97165.48;104922;1260;67322;-46
2023/12/20 09:00:35;;;;;;;4.20;2.60;;;;;;;14.85;53.88;97162.91;105109;1257;73544;-42
2023/12/20 09:03:03;;;;;;;3.50;2.40;;;;;;;14.90;54.21;97167.46;104920;1260;62033;-43
2023/12/20 09:05:30;;;;;;;7.40;3.00;;;;;;;14.97;54.37;97166.69;105865;1257;61918;-40
2023/12/20 09:07:58;;;;;;;6.60;2.90;;;;;;;15.01;54.36;97165.73;105302;1257;76886;-41
2023/12/20 09:10:25;;;;;;;3.50;2.40;;;;;;;15.06;54.71;97163.02;104973;1261;66975;-40
2023/12/20 09:12:57;;;;;;;6.20;2.90;;;;;;;15.10;54.93;97158.98;105333;1256;74644;-40
2023/12/20 09:15:25;;;;;;;30.90;3.60;;;;;;;15.13;54.96;97150.66;107587;1257;62164;-40
2023/12/20 09:17:53;;;;;;;102.40;6.50;;;;;;;15.15;55.06;97147.65;105680;1257;62142;-44
2023/12/20 09:20:21;;;;;;;125.70;7.20;;;;;;;15.17;55.14;97145.56;105408;1258;76346;-41
2023/12/20 09:22:49;;;;;;;76.00;5.70;;;;;;;15.18;54.58;97141.13;105061;1258;65390;-41
2023/12/20 09:25:17;;;;;;;98.30;6.40;;;;;;;15.18;54.15;97138.17;105043;1261;73416;-44
2023/12/20 09:27:45;;;;;;;72.50;5.90;;;;;;;15.17;54.01;97135.69;104960;1259;61952;-42
2023/12/20 09:30:13;;;;;;;56.50;5.00;;;;;;;15.17;54.13;97135.61;105872;1257;62054;-42
2023/12/20 09:32:54;;;;;;;47.50;4.90;;;;;;;15.17;54.19;97127.08;105269;1263;76425;-42
2023/12/20 09:35:22;;;;;;;52.30;5.20;;;;;;;15.17;54.30;97127.44;105165;1257;66779;-41
2023/12/20 09:37:50;;;;;;;37.40;4.70;;;;;;;15.17;54.40;97120.67;105379;1257;73545;-38
2023/12/20 09:40:18;;;;;;;56.70;4.60;;;;;;;15.18;54.40;97121.46;105484;1261;62075;-38
2023/12/20 09:42:55;;;;;;;38.60;4.60;;;;;;;15.18;54.55;97125.63;105116;1260;62159;-37
2023/12/20 09:45:23;;;;;;;31.90;4.60;;;;;;;15.18;54.52;97125.93;105274;1258;76115;-39
2023/12/20 09:47:54;;;;;;;32.80;4.70;;;;;;;15.18;54.65;97120.98;105215;1261;66327;-40
2023/12/20 09:50:22;;;;;;;37.40;4.50;;;;;;;15.18;54.75;97126.48;106010;1257;72633;-38
2023/12/20 09:52:51;;;;;;;25.80;4.10;;;;;;;15.18;54.79;97124.53;105046;1262;62048;-40
2023/12/20 09:55:19;;;;;;;25.10;4.80;;;;;;;15.18;54.81;97123.08;105161;1259;62101;-44
2023/12/20 09:57:48;;;;;;;24.80;3.70;;;;;;;15.19;54.85;97124.55;105059;1258;74007;-39
2023/12/20 10:00:17;;;;;;;24.00;3.90;;;;;;;15.18;54.88;97120.70;106049;1258;66389;-42
2023/12/20 10:03:11;;;;;;;23.60;3.70;;;;;;;15.19;54.80;97124.80;105964;1260;70337;-41
2023/12/20 10:05:39;;;;;;;21.70;4.00;;;;;;;15.20;54.81;97119.27;105048;1256;61972;-39
2023/12/20 10:08:07;;;;;;;21.60;3.30;;;;;;;15.20;54.99;97119.42;105430;1258;62844;-41
2023/12/20 10:10:35;;;;;;;17.80;4.00;;;;;;;15.19;54.95;97120.11;105434;1259;75129;-41
2023/12/20 10:13:13;;;;;;;20.20;4.00;;;;;;;15.20;55.06;97117.12;105126;1257;67356;-41
2023/12/20 10:15:41;;;;;;;13.30;3.20;;;;;;;15.19;55.07;97112.79;105495;1258;72265;-41
2023/12/20 10:18:12;;;;;;;16.90;3.40;;;;;;;15.19;55.08;97103.46;105338;1262;62059;-41
2023/12/20 10:20:40;;;;;;;20.80;3.40;;;;;;;15.20;55.21;97097.70;105482;1258;62077;-39
2023/12/20 10:23:08;;;;;;;10.40;3.10;;;;;;;15.21;55.23;97094.75;105221;1261;76151;-41
2023/12/20 10:25:35;;;;;;;16.60;3.10;;;;;;;15.24;55.39;97088.50;104872;1256;66204;-43
2023/12/20 10:28:11;;;;;;;12.00;2.70;;;;;;;15.26;55.41;97084.46;105221;1257;72604;-48
2023/12/20 10:30:39;;;;;;;15.80;3.10;;;;;;;15.28;55.54;97085.98;105443;1258;60415;-51
2023/12/20 10:33:09;;;;;;;19.80;3.20;;;;;;;15.31;55.76;97080.07;105185;1257;62165;-44
2023/12/20 10:35:39;;;;;;;8.50;2.60;;;;;;;15.33;55.63;97075.88;105711;1260;75406;-52
2023/12/20 10:38:13;;;;;;;13.80;3.00;;;;;;;15.34;55.67;97071.68;106824;1258;64141;-50
2023/12/20 10:40:40;;;;;;;10.10;2.90;;;;;;;15.36;55.63;97066.73;107986;1257;72452;-45
2023/12/20 10:43:08;;;;;;;12.20;3.00;;;;;;;15.38;55.63;97064.24;107580;1258;62164;-47
2023/12/20 10:45:36;;;;;;;8.90;2.70;;;;;;;15.41;55.75;97061.55;105745;1257;62047;-47
2023/12/20 10:48:04;;;;;;;6.90;2.90;;;;;;;15.42;55.68;97046.31;104839;1257;76458;-45
2023/12/20 10:50:31;;;;;;;8.00;2.50;;;;;;;15.43;55.65;97038.18;105686;1258;67593;-45
2023/12/20 10:52:58;;;;;;;7.40;2.50;;;;;;;15.45;55.57;97034.08;105234;1258;73462;-46
2023/12/20 10:55:27;;;;;;;11.70;2.60;;;;;;;15.46;55.61;97028.95;105217;1260;62132;-44
2023/12/20 10:58:00;;;;;;;10.00;2.70;;;;;;;15.47;55.49;97028.52;104973;1256;62048;-51
2023/12/20 11:00:31;;;;;;;8.30;2.70;;;;;;;15.48;55.47;97030.16;105066;1257;75396;-42
2023/12/20 11:03:04;;;;;;;7.90;2.40;;;;;;;15.48;55.46;97024.61;104916;1258;65045;-46
2023/12/20 11:05:31;;;;;;;6.40;2.80;;;;;;;15.49;55.44;97023.64;105097;1262;71515;-41
2023/12/20 11:08:03;;;;;;;5.40;2.00;;;;;;;15.49;55.36;97022.17;105161;1262;62086;-43
2023/12/20 11:11:01;;;;;;;9.20;2.80;;;;;;;15.49;55.20;97018.94;105819;1258;62081;-44
2023/12/20 11:13:36;;;;;;;8.10;2.60;;;;;;;15.48;55.27;97020.15;104946;1258;76454;-44
2023/12/20 11:16:03;;;;;;;7.70;2.30;;;;;;;15.49;55.21;97016.84;106605;1256;66424;-44
2023/12/20 11:18:31;;;;;;;10.10;2.50;;;;;;;15.49;55.21;97008.36;105486;1262;72322;-44
2023/12/20 11:21:03;;;;;;;7.30;2.20;;;;;;;15.49;55.12;97011.91;105259;1261;62010;-43
2023/12/20 11:23:33;;;;;;;5.00;2.20;;;;;;;15.49;55.02;97011.91;106074;1260;62136;-41
2023/12/20 11:26:00;;;;;;;8.00;2.50;;;;;;;15.49;54.97;97009.91;105342;1261;75553;-43
2023/12/20 11:28:29;;;;;;;5.00;2.60;;;;;;;15.49;54.92;97001.36;104766;1258;66156;-39